Time;durP1;ratioP1;P1;durP2;ratioP2;P2;SDS_P1;SDS_P2;PMS_P1;PMS_P2;Temp;Humidity;BMP_temperature;BMP_pressure;BME280_temperature;BME280_humidity;BME280_pressure;Samples;Min_cycle;Max_cycle;Signal;HPM_P1;HPM_P2
2022/05/01 00:00:12;;;;;;;0.00;0.00;;;;;;;;;;1746380;28;20217;-77
2022/05/01 00:01:04;;;;;;;0.00;0.00;;;;;;;;;;1739539;28;20247;-77
2022/05/01 00:01:56;;;;;;;0.00;0.00;;;;;;;;;;1746804;28;20236;-76
2022/05/01 00:02:48;;;;;;;0.00;0.00;;;;;;;;;;1745158;28;20214;-76
2022/05/01 00:03:40;;;;;;;0.00;0.00;;;;;;;;;;1741604;28;20198;-77
2022/05/01 00:04:31;;;;;;;0.00;0.00;;;;;;;;;;1745255;28;20524;-76
2022/05/01 00:05:24;;;;;;;0.00;0.00;;;;;;;;;;1744300;28;20280;-77
2022/05/01 00:06:15;;;;;;;0.00;0.00;;;;;;;;;;1746625;28;20210;-76
2022/05/01 00:07:12;;;;;;;0.00;0.00;;;;;;;;;;1745920;28;20214;-76
2022/05/01 00:08:04;;;;;;;0.00;0.00;;;;;;;;;;1746737;28;20203;-76
2022/05/01 00:08:55;;;;;;;0.00;0.00;;;;;;;;;;1745333;28;20202;-77
2022/05/01 00:09:48;;;;;;;0.00;0.00;;;;;;;;;;1745671;28;20255;-76
2022/05/01 00:10:42;;;;;;;0.00;0.00;;;;;;;;;;1743891;28;20234;-77
2022/05/01 00:11:33;;;;;;;0.00;0.00;;;;;;;;;;1746840;28;20195;-76
2022/05/01 00:12:26;;;;;;;0.00;0.00;;;;;;;;;;1746021;28;20651;-76
2022/05/01 00:13:17;;;;;;;0.00;0.00;;;;;;;;;;1746028;28;20611;-76
2022/05/01 00:14:09;;;;;;;0.00;0.00;;;;;;;;;;1746107;28;20613;-78
2022/05/01 00:15:00;;;;;;;0.00;0.00;;;;;;;;;;1745940;28;20241;-77
2022/05/01 00:15:52;;;;;;;0.00;0.00;;;;;;;;;;1743522;28;20690;-78
2022/05/01 00:16:44;;;;;;;0.00;0.00;;;;;;;;;;1746310;28;20203;-77
2022/05/01 00:17:36;;;;;;;0.00;0.00;;;;;;;;;;1745813;28;20226;-76
2022/05/01 00:18:27;;;;;;;0.00;0.00;;;;;;;;;;1746515;28;20644;-76
2022/05/01 00:19:19;;;;;;;0.00;0.00;;;;;;;;;;1744797;28;20202;-76
2022/05/01 00:20:11;;;;;;;0.00;0.00;;;;;;;;;;1747055;28;20243;-76
2022/05/01 00:21:03;;;;;;;0.00;0.00;;;;;;;;;;1740201;28;20277;-76
2022/05/01 00:21:56;;;;;;;0.00;0.00;;;;;;;;;;1747294;28;20212;-76
2022/05/01 00:22:48;;;;;;;0.00;0.00;;;;;;;;;;1747580;28;20194;-76
2022/05/01 00:23:40;;;;;;;0.00;0.00;;;;;;;;;;1747365;28;20293;-76
2022/05/01 00:24:32;;;;;;;0.00;0.00;;;;;;;;;;1747094;28;20202;-76
2022/05/01 00:25:26;;;;;;;0.00;0.00;;;;;;;;;;1745703;28;20198;-76
2022/05/01 00:26:20;;;;;;;0.00;0.00;;;;;;;;;;1747708;28;20514;-77
2022/05/01 00:27:12;;;;;;;0.00;0.00;;;;;;;;;;1746862;28;20928;-76
2022/05/01 00:28:04;;;;;;;0.00;0.00;;;;;;;;;;1747120;28;20198;-76
2022/05/01 00:28:56;;;;;;;0.00;0.00;;;;;;;;;;1749722;28;20198;-76
2022/05/01 00:29:48;;;;;;;0.00;0.00;;;;;;;;;;1744539;28;20306;-77
2022/05/01 00:30:39;;;;;;;0.00;0.00;;;;;;;;;;1745701;28;20238;-76
2022/05/01 00:31:31;;;;;;;0.00;0.00;;;;;;;;;;1747704;28;20371;-76
2022/05/01 00:32:23;;;;;;;0.00;0.00;;;;;;;;;;1747323;28;20632;-76
2022/05/01 00:36:43;;;;;;;0.00;0.00;;;;;;;;;;1732510;28;20645;-76
2022/05/01 00:37:34;;;;;;;0.03;0.03;;;;;;;;;;1736244;28;20538;-76
2022/05/01 00:38:26;;;;;;;0.00;0.00;;;;;;;;;;1745458;28;20202;-76
2022/05/01 00:39:18;;;;;;;0.00;0.00;;;;;;;;;;1747491;28;20210;-76
2022/05/01 00:40:11;;;;;;;0.00;0.00;;;;;;;;;;1747403;28;20605;-76
2022/05/01 00:41:03;;;;;;;0.00;0.00;;;;;;;;;;1745278;28;20253;-76
2022/05/01 00:41:57;;;;;;;0.00;0.00;;;;;;;;;;1747679;28;20650;-76
2022/05/01 00:42:48;;;;;;;0.00;0.00;;;;;;;;;;1747243;28;20225;-76
2022/05/01 00:44:03;;;;;;;0.00;0.00;;;;;;;;;;1747513;28;20202;-76
2022/05/01 00:44:54;;;;;;;0.00;0.00;;;;;;;;;;1746659;28;20194;-76
2022/05/01 00:45:47;;;;;;;0.00;0.00;;;;;;;;;;1746006;28;20226;-76
2022/05/01 00:46:38;;;;;;;0.00;0.00;;;;;;;;;;1747075;28;20686;-76
2022/05/01 00:47:31;;;;;;;0.00;0.00;;;;;;;;;;1747215;28;20544;-76
2022/05/01 00:48:22;;;;;;;0.00;0.00;;;;;;;;;;1745489;28;20213;-76
2022/05/01 00:49:15;;;;;;;0.10;0.10;;;;;;;;;;1747372;28;20578;-77
2022/05/01 00:50:06;;;;;;;0.00;0.00;;;;;;;;;;1747597;28;20194;-76
2022/05/01 00:50:59;;;;;;;0.00;0.00;;;;;;;;;;1746110;28;20699;-76
2022/05/01 00:51:51;;;;;;;0.00;0.00;;;;;;;;;;1748051;28;20562;-76
2022/05/01 00:52:43;;;;;;;0.00;0.00;;;;;;;;;;1746976;28;20248;-76
2022/05/01 00:53:34;;;;;;;0.00;0.00;;;;;;;;;;1746724;28;20259;-76
2022/05/01 00:54:27;;;;;;;0.00;0.00;;;;;;;;;;1746693;28;20198;-75
2022/05/01 00:55:19;;;;;;;0.00;0.00;;;;;;;;;;1745679;28;20230;-76
2022/05/01 00:56:10;;;;;;;0.00;0.00;;;;;;;;;;1748096;28;20260;-76
2022/05/01 00:57:05;;;;;;;0.00;0.00;;;;;;;;;;1746780;28;20283;-76
2022/05/01 00:57:56;;;;;;;0.00;0.00;;;;;;;;;;1747796;28;20203;-76
2022/05/01 00:58:48;;;;;;;0.00;0.00;;;;;;;;;;1747684;28;20718;-76
2022/05/01 00:59:41;;;;;;;0.00;0.00;;;;;;;;;;1742850;28;20202;-76
2022/05/01 01:00:34;;;;;;;0.00;0.00;;;;;;;;;;1744977;28;20287;-76
2022/05/01 01:01:26;;;;;;;0.00;0.00;;;;;;;;;;1747843;28;20651;-76
2022/05/01 01:02:18;;;;;;;0.00;0.00;;;;;;;;;;1747467;28;20207;-76
2022/05/01 01:03:09;;;;;;;0.00;0.00;;;;;;;;;;1747376;28;20213;-77
2022/05/01 01:04:02;;;;;;;0.00;0.00;;;;;;;;;;1747298;28;20202;-76
2022/05/01 01:04:54;;;;;;;0.00;0.00;;;;;;;;;;1746686;28;20202;-76
2022/05/01 01:05:46;;;;;;;0.00;0.00;;;;;;;;;;1745611;28;20264;-76
2022/05/01 01:06:37;;;;;;;0.00;0.00;;;;;;;;;;1747023;28;20218;-76
2022/05/01 01:07:29;;;;;;;0.00;0.00;;;;;;;;;;1747409;28;20297;-76
2022/05/01 01:08:21;;;;;;;0.00;0.00;;;;;;;;;;1747654;28;20206;-77
2022/05/01 01:09:13;;;;;;;0.00;0.00;;;;;;;;;;1747844;28;20198;-76
2022/05/01 01:10:05;;;;;;;0.00;0.00;;;;;;;;;;1747511;28;20210;-77
2022/05/01 01:10:58;;;;;;;0.00;0.00;;;;;;;;;;1745446;28;20679;-77
2022/05/01 01:12:53;;;;;;;0.00;0.00;;;;;;;;;;1747287;28;20609;-76
2022/05/01 01:13:04;;;;;;;0.00;0.00;;;;;;;;;;1746594;28;20190;-76
2022/05/01 01:13:55;;;;;;;0.00;0.00;;;;;;;;;;1747746;28;20198;-77
2022/05/01 01:14:48;;;;;;;0.10;0.10;;;;;;;;;;1747700;28;20202;-77
2022/05/01 01:15:39;;;;;;;0.00;0.00;;;;;;;;;;1745419;28;21384;-77
2022/05/01 01:16:32;;;;;;;0.00;0.00;;;;;;;;;;1747365;28;20233;-77
2022/05/01 01:17:23;;;;;;;0.00;0.00;;;;;;;;;;1747642;28;20279;-76
2022/05/01 01:18:15;;;;;;;0.00;0.00;;;;;;;;;;1746698;28;20206;-77
2022/05/01 01:19:08;;;;;;;0.00;0.00;;;;;;;;;;1746537;28;20202;-76
2022/05/01 01:20:00;;;;;;;0.00;0.00;;;;;;;;;;1742377;28;20510;-76
2022/05/01 01:20:53;;;;;;;0.00;0.00;;;;;;;;;;1744429;28;20241;-77
2022/05/01 01:21:45;;;;;;;0.00;0.00;;;;;;;;;;1747033;28;20240;-76
2022/05/01 01:22:36;;;;;;;0.00;0.00;;;;;;;;;;1747572;28;20536;-76
2022/05/01 01:23:30;;;;;;;0.00;0.00;;;;;;;;;;1747443;28;20259;-76
2022/05/01 01:24:22;;;;;;;0.00;0.00;;;;;;;;;;1747426;28;20241;-76
2022/05/01 01:25:14;;;;;;;0.00;0.00;;;;;;;;;;1738946;28;20628;-77
2022/05/01 01:26:06;;;;;;;0.00;0.00;;;;;;;;;;1739355;28;20231;-77
2022/05/01 01:26:58;;;;;;;0.00;0.00;;;;;;;;;;1740783;28;20213;-76
2022/05/01 01:27:50;;;;;;;0.00;0.00;;;;;;;;;;1747305;28;20217;-76
2022/05/01 01:28:43;;;;;;;0.00;0.00;;;;;;;;;;1740634;28;20234;-76
2022/05/01 01:31:55;;;;;;;0.00;0.00;;;;;;;;;;1746563;28;20182;-76
2022/05/01 01:32:46;;;;;;;0.00;0.00;;;;;;;;;;1747784;28;20194;-76
2022/05/01 01:33:39;;;;;;;0.00;0.00;;;;;;;;;;1747476;28;20198;-76
2022/05/01 01:34:32;;;;;;;0.00;0.00;;;;;;;;;;1746908;28;20659;-76
2022/05/01 01:35:29;;;;;;;0.00;0.00;;;;;;;;;;1745748;28;20202;-76
2022/05/01 01:36:22;;;;;;;0.05;0.05;;;;;;;;;;1743925;28;20268;-77
2022/05/01 01:37:17;;;;;;;0.00;0.00;;;;;;;;;;1746249;28;20211;-76
2022/05/01 01:38:08;;;;;;;0.00;0.00;;;;;;;;;;1746394;28;20216;-76
2022/05/01 01:39:01;;;;;;;0.00;0.00;;;;;;;;;;1747823;28;20248;-76
2022/05/01 01:39:52;;;;;;;0.00;0.00;;;;;;;;;;1747287;28;20206;-76
2022/05/01 01:40:46;;;;;;;0.00;0.00;;;;;;;;;;1746227;28;20228;-76
2022/05/01 01:41:39;;;;;;;0.00;0.00;;;;;;;;;;1747571;28;20272;-77
2022/05/01 01:42:33;;;;;;;0.00;0.00;;;;;;;;;;1747945;28;20206;-77
2022/05/01 01:43:25;;;;;;;0.00;0.00;;;;;;;;;;1746840;28;20968;-77
2022/05/01 01:44:18;;;;;;;0.00;0.00;;;;;;;;;;1750389;28;20237;-77
2022/05/01 01:45:10;;;;;;;0.00;0.00;;;;;;;;;;1754578;28;20209;-77
2022/05/01 01:46:03;;;;;;;0.00;0.00;;;;;;;;;;1753465;28;20236;-77
2022/05/01 01:46:54;;;;;;;0.10;0.10;;;;;;;;;;1753976;28;20240;-77
2022/05/01 01:47:49;;;;;;;0.00;0.00;;;;;;;;;;1754758;28;20304;-77
2022/05/01 01:48:40;;;;;;;0.00;0.00;;;;;;;;;;1743004;28;20697;-77
2022/05/01 01:49:32;;;;;;;0.00;0.00;;;;;;;;;;1752394;28;20578;-77
2022/05/01 01:50:27;;;;;;;0.00;0.00;;;;;;;;;;1751378;28;20213;-77
2022/05/01 01:51:19;;;;;;;0.00;0.00;;;;;;;;;;1750633;28;20193;-77
2022/05/01 01:52:12;;;;;;;0.00;0.00;;;;;;;;;;1753682;28;20205;-77
2022/05/01 01:53:04;;;;;;;0.00;0.00;;;;;;;;;;1754390;28;20190;-77
2022/05/01 01:53:55;;;;;;;0.00;0.00;;;;;;;;;;1753537;28;20205;-77
2022/05/01 01:54:48;;;;;;;0.00;0.00;;;;;;;;;;1753994;28;20201;-77
2022/05/01 01:55:39;;;;;;;0.00;0.00;;;;;;;;;;1752289;28;20241;-77
2022/05/01 01:56:31;;;;;;;0.00;0.00;;;;;;;;;;1753265;28;20266;-77
2022/05/01 01:57:22;;;;;;;0.00;0.00;;;;;;;;;;1753406;28;20217;-77
2022/05/01 01:58:14;;;;;;;0.00;0.00;;;;;;;;;;1754527;28;20636;-77
2022/05/01 01:59:06;;;;;;;0.00;0.00;;;;;;;;;;1753567;28;20578;-77
2022/05/01 01:59:58;;;;;;;0.00;0.00;;;;;;;;;;1753748;28;20193;-77
2022/05/01 02:00:49;;;;;;;0.00;0.00;;;;;;;;;;1754432;28;20245;-77
2022/05/01 02:01:43;;;;;;;0.00;0.00;;;;;;;;;;1754102;28;20551;-77
2022/05/01 02:02:34;;;;;;;0.00;0.00;;;;;;;;;;1749706;28;20225;-77
2022/05/01 02:03:26;;;;;;;0.00;0.00;;;;;;;;;;1746818;28;20198;-76
2022/05/01 02:04:18;;;;;;;0.00;0.00;;;;;;;;;;1753369;28;20213;-77
2022/05/01 02:05:10;;;;;;;0.00;0.00;;;;;;;;;;1753779;28;20213;-77
2022/05/01 02:06:04;;;;;;;0.00;0.00;;;;;;;;;;1752479;28;20225;-77
2022/05/01 02:06:56;;;;;;;0.00;0.00;;;;;;;;;;1754164;28;20212;-77
2022/05/01 02:07:49;;;;;;;0.00;0.00;;;;;;;;;;1753672;28;20206;-77
2022/05/01 02:08:42;;;;;;;0.00;0.00;;;;;;;;;;1753671;28;20205;-76
2022/05/01 02:09:37;;;;;;;0.00;0.00;;;;;;;;;;1753242;28;20202;-77
2022/05/01 02:10:29;;;;;;;0.00;0.00;;;;;;;;;;1752154;28;20198;-77
2022/05/01 02:11:21;;;;;;;0.00;0.00;;;;;;;;;;1754185;28;20525;-77
2022/05/01 02:12:13;;;;;;;0.00;0.00;;;;;;;;;;1754169;28;20715;-78
2022/05/01 02:13:04;;;;;;;0.00;0.00;;;;;;;;;;1754300;28;20201;-77
2022/05/01 02:13:56;;;;;;;0.00;0.00;;;;;;;;;;1753711;28;20263;-77
2022/05/01 02:14:47;;;;;;;0.00;0.00;;;;;;;;;;1753976;28;20554;-77
2022/05/01 02:15:40;;;;;;;0.00;0.00;;;;;;;;;;1751086;28;20259;-77
2022/05/01 02:16:31;;;;;;;0.00;0.00;;;;;;;;;;1753576;28;20209;-77
2022/05/01 02:17:23;;;;;;;0.00;0.00;;;;;;;;;;1753838;28;20206;-77
2022/05/01 02:18:14;;;;;;;0.00;0.00;;;;;;;;;;1753822;28;20220;-77
2022/05/01 02:19:07;;;;;;;0.00;0.00;;;;;;;;;;1754058;28;20599;-77
2022/05/01 02:19:58;;;;;;;0.00;0.00;;;;;;;;;;1749296;28;20621;-77
2022/05/01 02:22:01;;;;;;;0.00;0.00;;;;;;;;;;1753037;28;20182;-77
2022/05/01 02:22:54;;;;;;;0.00;0.00;;;;;;;;;;1753205;28;20210;-77
2022/05/01 02:23:47;;;;;;;0.00;0.00;;;;;;;;;;1753533;28;20197;-77
2022/05/01 02:24:38;;;;;;;0.00;0.00;;;;;;;;;;1753915;28;20206;-77
2022/05/01 02:25:30;;;;;;;0.00;0.00;;;;;;;;;;1752317;28;20205;-77
2022/05/01 02:26:21;;;;;;;0.00;0.00;;;;;;;;;;1753982;28;20210;-77
2022/05/01 02:27:13;;;;;;;0.00;0.00;;;;;;;;;;1753322;28;20225;-77
2022/05/01 02:28:05;;;;;;;0.00;0.00;;;;;;;;;;1753306;28;20202;-77
2022/05/01 02:28:57;;;;;;;0.00;0.00;;;;;;;;;;1756427;28;20204;-77
2022/05/01 02:29:48;;;;;;;0.00;0.00;;;;;;;;;;1753763;28;20198;-77
2022/05/01 02:30:40;;;;;;;0.00;0.00;;;;;;;;;;1752377;28;20694;-77
2022/05/01 02:31:32;;;;;;;0.00;0.00;;;;;;;;;;1754282;28;20206;-77
2022/05/01 02:32:24;;;;;;;0.00;0.00;;;;;;;;;;1753563;28;20539;-77
2022/05/01 02:33:15;;;;;;;0.00;0.00;;;;;;;;;;1752434;28;20266;-76
2022/05/01 02:34:08;;;;;;;0.00;0.00;;;;;;;;;;1750969;28;20324;-76
2022/05/01 02:34:59;;;;;;;0.00;0.00;;;;;;;;;;1753534;28;20201;-76
2022/05/01 02:35:51;;;;;;;0.00;0.00;;;;;;;;;;1752317;28;20312;-76
2022/05/01 02:36:42;;;;;;;0.00;0.00;;;;;;;;;;1753667;28;20942;-76
2022/05/01 02:37:34;;;;;;;0.00;0.00;;;;;;;;;;1753497;28;20540;-76
2022/05/01 02:38:27;;;;;;;0.00;0.00;;;;;;;;;;1754192;28;20259;-77
2022/05/01 02:39:19;;;;;;;0.00;0.00;;;;;;;;;;1753769;28;20202;-77
2022/05/01 02:40:11;;;;;;;0.00;0.00;;;;;;;;;;1751000;28;20202;-77
2022/05/01 02:41:04;;;;;;;0.00;0.00;;;;;;;;;;1751944;28;20299;-76
2022/05/01 02:41:56;;;;;;;0.00;0.00;;;;;;;;;;1754394;28;20671;-77
2022/05/01 02:42:48;;;;;;;0.00;0.00;;;;;;;;;;1753117;28;20212;-76
2022/05/01 02:43:39;;;;;;;0.00;0.00;;;;;;;;;;1753269;28;20201;-76
2022/05/01 02:44:31;;;;;;;0.00;0.00;;;;;;;;;;1753156;28;20264;-76
2022/05/01 02:45:23;;;;;;;0.00;0.00;;;;;;;;;;1751855;28;20209;-77
2022/05/01 02:46:16;;;;;;;0.00;0.00;;;;;;;;;;1754441;28;20642;-76
2022/05/01 02:47:07;;;;;;;0.00;0.00;;;;;;;;;;1753089;28;20197;-76
2022/05/01 02:47:59;;;;;;;0.00;0.00;;;;;;;;;;1750251;28;20208;-76
2022/05/01 02:48:50;;;;;;;0.00;0.00;;;;;;;;;;1753791;28;20526;-76
2022/05/01 02:49:43;;;;;;;0.00;0.00;;;;;;;;;;1753998;28;20212;-76
2022/05/01 02:50:34;;;;;;;0.10;0.10;;;;;;;;;;1752912;28;20256;-76
2022/05/01 02:51:26;;;;;;;0.00;0.00;;;;;;;;;;1753960;28;20211;-76
2022/05/01 02:52:17;;;;;;;0.00;0.00;;;;;;;;;;1754258;28;20209;-76
2022/05/01 02:53:09;;;;;;;0.00;0.00;;;;;;;;;;1752979;28;20538;-76
2022/05/01 02:54:04;;;;;;;0.00;0.00;;;;;;;;;;1753587;28;20571;-76
2022/05/01 02:54:56;;;;;;;0.00;0.00;;;;;;;;;;1754020;28;20202;-76
2022/05/01 02:55:47;;;;;;;0.00;0.00;;;;;;;;;;1751875;28;20241;-76
2022/05/01 02:56:39;;;;;;;0.00;0.00;;;;;;;;;;1753751;28;20209;-76
2022/05/01 02:57:30;;;;;;;0.00;0.00;;;;;;;;;;1753240;28;20627;-76
2022/05/01 02:58:22;;;;;;;0.00;0.00;;;;;;;;;;1754154;28;20212;-76
2022/05/01 02:59:14;;;;;;;0.00;0.00;;;;;;;;;;1752651;28;20835;-76
2022/05/01 03:00:07;;;;;;;0.00;0.00;;;;;;;;;;1752744;28;20205;-76
2022/05/01 03:00:59;;;;;;;0.00;0.00;;;;;;;;;;1751720;28;20374;-76
2022/05/01 03:01:51;;;;;;;0.00;0.00;;;;;;;;;;1753632;28;20233;-76
2022/05/01 03:02:43;;;;;;;0.00;0.00;;;;;;;;;;1753674;28;20482;-76
2022/05/01 03:03:35;;;;;;;0.00;0.00;;;;;;;;;;1749802;28;20202;-76
2022/05/01 03:04:27;;;;;;;0.00;0.00;;;;;;;;;;1754503;28;20237;-76
2022/05/01 03:05:19;;;;;;;0.00;0.00;;;;;;;;;;1751375;28;20631;-76
2022/05/01 03:06:11;;;;;;;0.00;0.00;;;;;;;;;;1753089;28;20479;-76
2022/05/01 03:07:04;;;;;;;0.00;0.00;;;;;;;;;;1753238;28;20319;-76
2022/05/01 03:07:56;;;;;;;0.00;0.00;;;;;;;;;;1753989;28;20206;-76
2022/05/01 03:08:48;;;;;;;0.00;0.00;;;;;;;;;;1754574;28;20243;-76
2022/05/01 03:09:41;;;;;;;0.00;0.00;;;;;;;;;;1750290;28;20212;-76
2022/05/01 03:10:34;;;;;;;0.00;0.00;;;;;;;;;;1752733;28;20252;-76
2022/05/01 03:11:25;;;;;;;0.00;0.00;;;;;;;;;;1753911;28;20213;-76
2022/05/01 03:12:19;;;;;;;0.00;0.00;;;;;;;;;;1753415;28;20205;-76
2022/05/01 03:13:10;;;;;;;0.00;0.00;;;;;;;;;;1754137;28;20197;-76
2022/05/01 03:14:03;;;;;;;0.00;0.00;;;;;;;;;;1754303;28;20201;-76
2022/05/01 03:14:54;;;;;;;0.00;0.00;;;;;;;;;;1754137;28;20209;-76
2022/05/01 03:15:46;;;;;;;0.00;0.00;;;;;;;;;;1752715;28;20573;-76
2022/05/01 03:16:37;;;;;;;0.03;0.03;;;;;;;;;;1753292;28;20225;-76
2022/05/01 03:22:10;;;;;;;0.00;0.00;;;;;;;;;;1746698;28;20256;-76
2022/05/01 03:22:14;;;;;;;0.00;0.00;;;;;;;;;;1754482;28;20192;-75
2022/05/01 03:23:05;;;;;;;0.03;0.03;;;;;;;;;;1753992;28;20202;-76
2022/05/01 03:23:57;;;;;;;0.00;0.00;;;;;;;;;;1754827;28;20209;-76
2022/05/01 03:24:50;;;;;;;0.00;0.00;;;;;;;;;;1752656;28;20254;-75
2022/05/01 03:25:43;;;;;;;0.00;0.00;;;;;;;;;;1752971;28;20281;-76
2022/05/01 03:26:34;;;;;;;0.00;0.00;;;;;;;;;;1753281;28;20205;-76
2022/05/01 03:27:26;;;;;;;0.00;0.00;;;;;;;;;;1754494;28;20209;-76
2022/05/01 03:28:17;;;;;;;0.00;0.00;;;;;;;;;;1754165;28;20205;-76
2022/05/01 03:29:09;;;;;;;0.00;0.00;;;;;;;;;;1753148;28;20243;-76
2022/05/01 03:30:15;;;;;;;0.00;0.00;;;;;;;;;;1748685;28;20532;-76
2022/05/01 03:31:09;;;;;;;0.00;0.00;;;;;;;;;;1752046;28;20287;-76
2022/05/01 03:32:01;;;;;;;0.00;0.00;;;;;;;;;;1753362;28;20240;-76
2022/05/01 03:32:53;;;;;;;0.00;0.00;;;;;;;;;;1753295;28;20232;-76
2022/05/01 03:33:45;;;;;;;0.00;0.00;;;;;;;;;;1750238;28;20202;-76
2022/05/01 03:34:38;;;;;;;0.00;0.00;;;;;;;;;;1754221;28;20222;-76
2022/05/01 03:35:29;;;;;;;0.00;0.00;;;;;;;;;;1751708;28;20243;-76
2022/05/01 03:36:21;;;;;;;0.00;0.00;;;;;;;;;;1753982;28;20286;-76
2022/05/01 03:37:15;;;;;;;0.00;0.00;;;;;;;;;;1752223;28;20671;-76
2022/05/01 03:38:06;;;;;;;0.00;0.00;;;;;;;;;;1753164;28;20202;-76
2022/05/01 03:38:59;;;;;;;0.00;0.00;;;;;;;;;;1753066;28;20589;-76
2022/05/01 03:39:51;;;;;;;0.00;0.00;;;;;;;;;;1753591;28;20627;-76
2022/05/01 03:40:47;;;;;;;0.00;0.00;;;;;;;;;;1750851;28;20301;-75
2022/05/01 03:41:38;;;;;;;0.00;0.00;;;;;;;;;;1753774;28;20210;-76
2022/05/01 03:42:31;;;;;;;0.00;0.00;;;;;;;;;;1754664;28;20232;-76
2022/05/01 03:43:22;;;;;;;0.00;0.00;;;;;;;;;;1752776;28;20210;-76
2022/05/01 03:44:14;;;;;;;0.00;0.00;;;;;;;;;;1752579;28;20317;-76
2022/05/01 03:45:06;;;;;;;0.00;0.00;;;;;;;;;;1748084;28;20210;-76
2022/05/01 03:45:58;;;;;;;0.00;0.00;;;;;;;;;;1752285;28;20256;-76
2022/05/01 03:46:49;;;;;;;0.00;0.00;;;;;;;;;;1753708;28;20235;-76
2022/05/01 03:47:42;;;;;;;0.00;0.00;;;;;;;;;;1753178;28;20209;-75
2022/05/01 03:48:33;;;;;;;0.00;0.00;;;;;;;;;;1753503;28;20221;-75
2022/05/01 03:49:25;;;;;;;0.10;0.10;;;;;;;;;;1752656;28;20221;-76
2022/05/01 03:50:16;;;;;;;0.00;0.00;;;;;;;;;;1751022;28;20205;-76
2022/05/01 03:51:09;;;;;;;0.00;0.00;;;;;;;;;;1754430;28;20217;-76
2022/05/01 03:52:00;;;;;;;0.00;0.00;;;;;;;;;;1753322;28;20209;-76
2022/05/01 03:52:52;;;;;;;0.00;0.00;;;;;;;;;;1753656;28;20292;-75
2022/05/01 03:53:45;;;;;;;0.00;0.00;;;;;;;;;;1753301;28;20481;-76
2022/05/01 03:54:37;;;;;;;0.00;0.00;;;;;;;;;;1750362;28;20198;-76
2022/05/01 03:55:30;;;;;;;0.00;0.00;;;;;;;;;;1753817;28;20208;-76
2022/05/01 03:56:22;;;;;;;0.00;0.00;;;;;;;;;;1754130;28;20197;-75
2022/05/01 03:57:14;;;;;;;0.00;0.00;;;;;;;;;;1754095;28;20543;-76
2022/05/01 03:58:06;;;;;;;0.00;0.00;;;;;;;;;;1755095;28;20596;-76
2022/05/01 03:58:57;;;;;;;0.00;0.00;;;;;;;;;;1754734;28;20653;-76
2022/05/01 03:59:49;;;;;;;0.00;0.00;;;;;;;;;;1752082;28;20189;-76
2022/05/01 04:00:44;;;;;;;0.00;0.00;;;;;;;;;;1753354;28;20241;-76
2022/05/01 04:01:36;;;;;;;0.00;0.00;;;;;;;;;;1755319;28;20197;-76
2022/05/01 04:02:27;;;;;;;0.00;0.00;;;;;;;;;;1755071;28;20542;-76
2022/05/01 04:03:19;;;;;;;0.00;0.00;;;;;;;;;;1752745;28;20201;-76
2022/05/01 04:04:11;;;;;;;0.00;0.00;;;;;;;;;;1752600;28;20220;-76
2022/05/01 04:05:03;;;;;;;0.00;0.00;;;;;;;;;;1754929;28;20631;-76
2022/05/01 04:05:54;;;;;;;0.00;0.00;;;;;;;;;;1754401;28;20598;-76
2022/05/01 04:06:46;;;;;;;0.00;0.00;;;;;;;;;;1754967;28;20209;-76
2022/05/01 04:07:38;;;;;;;0.00;0.00;;;;;;;;;;1755828;28;20209;-76
2022/05/01 04:08:30;;;;;;;0.00;0.00;;;;;;;;;;1754330;28;20205;-75
2022/05/01 04:09:24;;;;;;;0.00;0.00;;;;;;;;;;1755111;28;20212;-76
2022/05/01 04:10:16;;;;;;;0.00;0.00;;;;;;;;;;1752583;28;20262;-76
2022/05/01 04:11:09;;;;;;;0.00;0.00;;;;;;;;;;1756329;28;20194;-76
2022/05/01 04:12:01;;;;;;;0.00;0.00;;;;;;;;;;1755010;28;20210;-76
2022/05/01 04:12:52;;;;;;;0.00;0.00;;;;;;;;;;1755391;28;20685;-75
2022/05/01 04:13:44;;;;;;;0.00;0.00;;;;;;;;;;1755239;28;20202;-76
2022/05/01 04:14:36;;;;;;;0.00;0.00;;;;;;;;;;1754872;28;20206;-76
2022/05/01 04:15:28;;;;;;;0.00;0.00;;;;;;;;;;1753394;28;20197;-76
2022/05/01 04:16:19;;;;;;;0.00;0.00;;;;;;;;;;1750864;28;20262;-76
2022/05/01 04:17:11;;;;;;;0.00;0.00;;;;;;;;;;1755546;28;20202;-76
2022/05/01 04:18:03;;;;;;;0.00;0.00;;;;;;;;;;1755096;28;20205;-76
2022/05/01 04:18:55;;;;;;;0.00;0.00;;;;;;;;;;1754188;28;20616;-76
2022/05/01 04:19:48;;;;;;;0.00;0.00;;;;;;;;;;1754929;28;20267;-76
2022/05/01 04:20:40;;;;;;;0.20;0.20;;;;;;;;;;1753269;28;20691;-75
2022/05/01 04:21:31;;;;;;;0.00;0.00;;;;;;;;;;1753726;28;20908;-76
2022/05/01 04:22:24;;;;;;;0.00;0.00;;;;;;;;;;1755474;28;20587;-75
2022/05/01 04:23:15;;;;;;;0.00;0.00;;;;;;;;;;1754965;28;20643;-75
2022/05/01 04:24:08;;;;;;;0.00;0.00;;;;;;;;;;1755877;28;20197;-76
2022/05/01 04:24:59;;;;;;;0.10;0.10;;;;;;;;;;1755012;28;20255;-76
2022/05/01 04:25:51;;;;;;;0.00;0.00;;;;;;;;;;1754323;28;20255;-76
2022/05/01 04:26:44;;;;;;;0.00;0.00;;;;;;;;;;1753846;28;20197;-75
2022/05/01 04:27:36;;;;;;;0.00;0.00;;;;;;;;;;1754828;28;20217;-75
2022/05/01 04:28:27;;;;;;;0.00;0.00;;;;;;;;;;1754453;28;20209;-75
2022/05/01 04:29:39;;;;;;;0.00;0.00;;;;;;;;;;1754387;28;20699;-76
2022/05/01 04:30:31;;;;;;;0.00;0.00;;;;;;;;;;1748082;28;20423;-76
2022/05/01 04:31:23;;;;;;;0.00;0.00;;;;;;;;;;1754793;28;20704;-75
2022/05/01 04:32:16;;;;;;;0.00;0.00;;;;;;;;;;1754336;28;20205;-75
2022/05/01 04:33:09;;;;;;;0.00;0.00;;;;;;;;;;1754400;28;20620;-75
2022/05/01 04:34:00;;;;;;;0.00;0.00;;;;;;;;;;1750143;28;20209;-75
2022/05/01 04:34:53;;;;;;;0.00;0.00;;;;;;;;;;1754510;28;20193;-75
2022/05/01 04:35:45;;;;;;;0.00;0.00;;;;;;;;;;1754130;28;20213;-76
2022/05/01 04:36:39;;;;;;;0.00;0.00;;;;;;;;;;1754469;28;20197;-76
2022/05/01 04:37:30;;;;;;;0.00;0.00;;;;;;;;;;1755253;28;20293;-76
2022/05/01 04:38:24;;;;;;;0.00;0.00;;;;;;;;;;1754784;28;20208;-76
2022/05/01 04:39:15;;;;;;;0.00;0.00;;;;;;;;;;1755579;28;20698;-76
2022/05/01 04:40:07;;;;;;;0.00;0.00;;;;;;;;;;1754021;28;20255;-75
2022/05/01 04:40:59;;;;;;;0.00;0.00;;;;;;;;;;1752603;28;20244;-75
2022/05/01 04:41:52;;;;;;;0.00;0.00;;;;;;;;;;1754878;28;20307;-76
2022/05/01 04:42:45;;;;;;;0.00;0.00;;;;;;;;;;1754417;28;20520;-75
2022/05/01 04:43:40;;;;;;;0.00;0.00;;;;;;;;;;1754319;28;20205;-75
2022/05/01 04:44:31;;;;;;;0.00;0.00;;;;;;;;;;1754460;28;20249;-76
2022/05/01 04:45:24;;;;;;;0.00;0.00;;;;;;;;;;1753309;28;20296;-75
2022/05/01 04:46:16;;;;;;;0.00;0.00;;;;;;;;;;1753872;28;20631;-76
2022/05/01 04:47:08;;;;;;;0.00;0.00;;;;;;;;;;1753663;28;20229;-76
2022/05/01 04:48:01;;;;;;;0.00;0.00;;;;;;;;;;1754167;28;20673;-76
2022/05/01 04:48:53;;;;;;;0.00;0.00;;;;;;;;;;1753932;28;20197;-76
2022/05/01 04:49:44;;;;;;;0.00;0.00;;;;;;;;;;1754487;28;20213;-76
2022/05/01 04:50:37;;;;;;;0.00;0.00;;;;;;;;;;1753084;28;20233;-76
2022/05/01 04:51:28;;;;;;;0.00;0.00;;;;;;;;;;1755016;28;20205;-76
2022/05/01 04:52:20;;;;;;;0.00;0.00;;;;;;;;;;1753876;28;20205;-75
2022/05/01 04:53:12;;;;;;;0.00;0.00;;;;;;;;;;1753874;28;20201;-76
2022/05/01 04:54:04;;;;;;;0.00;0.00;;;;;;;;;;1754882;28;20752;-76
2022/05/01 04:54:56;;;;;;;0.00;0.00;;;;;;;;;;1754839;28;20201;-76
2022/05/01 04:55:48;;;;;;;0.00;0.00;;;;;;;;;;1753072;28;20229;-76
2022/05/01 04:57:51;;;;;;;0.00;0.00;;;;;;;;;;1755624;28;20201;-76
2022/05/01 04:58:43;;;;;;;0.00;0.00;;;;;;;;;;1754416;28;20205;-76
2022/05/01 04:59:35;;;;;;;0.00;0.00;;;;;;;;;;1754117;28;20202;-76
2022/05/01 05:00:26;;;;;;;0.00;0.00;;;;;;;;;;1752899;28;20296;-76
2022/05/01 05:01:19;;;;;;;0.00;0.00;;;;;;;;;;1754888;28;20372;-76
2022/05/01 05:02:10;;;;;;;0.00;0.00;;;;;;;;;;1754350;28;20242;-76
2022/05/01 05:03:02;;;;;;;0.00;0.00;;;;;;;;;;1754879;28;20262;-76
2022/05/01 05:03:53;;;;;;;0.00;0.00;;;;;;;;;;1750422;28;20571;-76
2022/05/01 05:04:46;;;;;;;0.00;0.00;;;;;;;;;;1754341;28;20203;-76
2022/05/01 05:05:37;;;;;;;0.00;0.00;;;;;;;;;;1752140;28;20578;-76
2022/05/01 05:06:29;;;;;;;0.00;0.00;;;;;;;;;;1754114;28;20292;-76
2022/05/01 05:07:20;;;;;;;0.00;0.00;;;;;;;;;;1753813;28;20568;-76
2022/05/01 05:10:32;;;;;;;0.00;0.00;;;;;;;;;;1752292;28;20240;-76
2022/05/01 05:11:23;;;;;;;0.00;0.00;;;;;;;;;;1754283;28;20202;-76
2022/05/01 05:12:15;;;;;;;0.00;0.00;;;;;;;;;;1753633;28;20496;-76
2022/05/01 05:13:08;;;;;;;0.00;0.00;;;;;;;;;;1754436;28;20205;-76
2022/05/01 05:14:00;;;;;;;0.00;0.00;;;;;;;;;;1754257;28;20285;-76
2022/05/01 05:14:55;;;;;;;0.00;0.00;;;;;;;;;;1754527;28;20205;-76
2022/05/01 05:15:47;;;;;;;0.00;0.00;;;;;;;;;;1752287;28;20233;-76
2022/05/01 05:16:40;;;;;;;0.00;0.00;;;;;;;;;;1754317;28;20216;-76
2022/05/01 05:17:33;;;;;;;0.00;0.00;;;;;;;;;;1753639;28;20213;-76
2022/05/01 05:18:24;;;;;;;0.00;0.00;;;;;;;;;;1753864;28;20206;-76
2022/05/01 05:19:16;;;;;;;0.00;0.00;;;;;;;;;;1753661;28;20317;-76
2022/05/01 05:20:09;;;;;;;0.10;0.10;;;;;;;;;;1754504;28;20215;-76
2022/05/01 05:21:00;;;;;;;0.00;0.00;;;;;;;;;;1752428;28;20226;-76
2022/05/01 05:21:52;;;;;;;0.00;0.00;;;;;;;;;;1754889;28;20639;-76
2022/05/01 05:22:45;;;;;;;0.00;0.00;;;;;;;;;;1755383;28;20611;-76
2022/05/01 05:23:36;;;;;;;0.00;0.00;;;;;;;;;;1754087;28;20654;-76
2022/05/01 05:24:27;;;;;;;0.03;0.03;;;;;;;;;;1753298;28;20206;-76
2022/05/01 05:25:20;;;;;;;0.08;0.08;;;;;;;;;;1752263;28;20310;-76
2022/05/01 05:26:11;;;;;;;0.00;0.00;;;;;;;;;;1753938;28;20281;-76
2022/05/01 05:27:04;;;;;;;0.00;0.00;;;;;;;;;;1753710;28;20505;-76
2022/05/01 05:27:55;;;;;;;0.00;0.00;;;;;;;;;;1754404;28;20206;-76